.
WxDataArchive / Data Records for 2011-04-18
2011-04-17 April 2011 2011-04-19

Data Records for Monday, 18 April 2011

Time	Temp	Chill	HIndex	Humid	Dewpt	 Wind 	HiWind	WindDir	Rain 	Barom 
-----	----	-----	------	-----	-----	------	------	-------	-----	----- 
00:00	47.3	47.3	47.3	58	33.3	0	1	248	0.00	29.871 
00:05	47.3	47.3	47.3	59	33.7	0	1	248	0.00	29.871 
00:10	47.3	47.3	47.3	58	33.3	0	1	248	0.00	29.871 
00:15	47.3	47.3	47.3	58	33.3	0	1	248	0.00	29.875 
00:20	47.1	47.1	47.1	58	33.1	0	0	---	0.00	29.875 
00:25	47.1	47.1	47.1	58	33.1	0	2	248	0.00	29.875 
00:30	47.1	47.1	47.1	58	33.1	0	1	248	0.00	29.881 
00:35	47.1	47.1	47.1	59	33.5	0	0	---	0.00	29.881 
00:40	47.1	47.1	47.1	59	33.5	0	0	---	0.00	29.881 
00:45	47.0	47.0	47.0	60	33.8	0	0	---	0.00	29.868 
00:50	46.8	46.8	46.8	60	33.7	0	1	248	0.00	29.868 
00:55	46.8	46.8	46.8	61	34.1	0	0	---	0.00	29.868 
01:00	46.7	46.7	46.7	61	34.0	0	1	248	0.00	29.854 
01:05	46.5	46.5	46.5	62	34.2	0	1	248	0.00	29.854 
01:10	46.2	46.2	46.2	64	34.7	0	1	248	0.00	29.854 
01:15	46.1	46.1	46.1	65	35.0	0	1	248	0.00	29.853 
01:20	45.8	45.8	45.8	66	35.1	0	1	248	0.00	29.853 
01:25	45.7	45.7	45.7	67	35.4	0	0	---	0.00	29.853 
01:30	45.4	45.4	45.4	69	35.8	0	0	---	0.01	29.868 
01:35	45.2	45.2	45.2	68	35.3	0	0	---	0.00	29.868 
01:40	45.2	45.2	45.2	71	36.4	0	0	---	0.00	29.868 
01:45	45.1	45.1	45.1	73	37.0	0	0	---	0.00	29.869 
01:50	44.9	44.9	44.9	76	37.8	0	0	---	0.00	29.869 
01:55	44.8	44.8	44.8	79	38.7	0	1	248	0.00	29.869 
02:00	44.6	44.6	44.6	80	38.8	0	0	---	0.01	29.867 
02:05	44.3	44.3	44.3	81	38.8	0	0	---	0.00	29.867 
02:10	44.2	44.2	44.2	81	38.7	1	2	248	0.00	29.867 
02:15	43.9	43.9	43.9	82	38.8	0	2	248	0.00	29.859 
02:20	43.8	43.8	43.8	82	38.7	0	1	248	0.00	29.859 
02:25	43.8	43.8	43.8	83	39.0	0	0	---	0.01	29.859 
02:30	43.6	43.6	43.6	84	39.1	0	0	---	0.00	29.869 
02:35	43.5	43.5	43.5	84	39.0	0	1	248	0.00	29.869 
02:40	43.5	43.5	43.5	84	39.0	0	1	248	0.00	29.869 
02:45	43.3	43.3	43.3	84	38.8	0	1	248	0.00	29.876 
02:50	43.3	43.3	43.3	84	38.8	0	1	248	0.00	29.876 
02:55	43.2	43.2	43.2	84	38.7	0	0	---	0.00	29.876 
03:00	43.2	43.2	43.2	84	38.7	0	0	---	0.00	29.885 
03:05	43.1	43.1	43.1	84	38.6	0	1	248	0.00	29.885 
03:10	43.1	43.1	43.1	84	38.6	0	0	---	0.00	29.885 
03:15	43.1	43.1	43.1	84	38.6	0	2	248	0.00	29.892 
03:20	42.9	42.9	42.9	84	38.4	0	1	248	0.00	29.892 
03:25	42.9	42.9	42.9	84	38.4	1	5	112	0.00	29.892 
03:30	42.8	42.8	42.8	84	38.3	1	5	22	0.00	29.894 
03:35	42.5	42.5	42.5	83	37.7	1	5	68	0.00	29.894 
03:40	42.2	42.2	42.2	82	37.1	1	6	135	0.00	29.894 
03:45	42.1	42.1	42.1	82	37.0	2	6	90	0.00	29.903 
03:50	41.9	41.9	41.9	82	36.8	2	4	112	0.00	29.903 
03:55	41.6	41.6	41.6	83	36.8	1	3	22	0.00	29.903 
04:00	41.5	41.5	41.5	83	36.7	1	3	112	0.00	29.903 
04:05	41.2	41.2	41.2	83	36.4	1	3	0	0.00	29.903 
04:10	41.1	41.1	41.1	83	36.3	2	9	45	0.00	29.903 
04:15	40.8	40.8	40.8	84	36.3	1	4	45	0.00	29.886 
04:20	40.5	40.5	40.5	84	36.1	2	6	112	0.00	29.886 
04:25	40.3	40.3	40.3	84	35.9	2	6	135	0.00	29.886 
04:30	40.2	40.2	40.2	85	36.1	3	9	112	0.00	29.890 
04:35	39.9	37.2	39.9	85	35.8	4	9	112	0.00	29.890 
04:40	39.8	39.8	39.8	85	35.7	3	7	112	0.00	29.890 
04:45	39.3	39.3	39.3	84	34.9	3	7	112	0.00	29.899 
04:50	39.1	39.1	39.1	82	34.1	3	6	112	0.00	29.899 
04:55	38.8	35.9	38.8	81	33.5	4	8	112	0.00	29.899 
05:00	38.6	35.7	38.6	82	33.6	4	9	90	0.00	29.884 
05:05	38.6	38.6	38.6	82	33.6	3	7	90	0.00	29.884 
05:10	38.6	35.7	38.6	83	33.9	4	7	90	0.00	29.884 
05:15	38.8	35.9	38.8	83	34.1	4	10	90	0.00	29.869 
05:20	38.8	35.9	38.8	82	33.8	4	10	112	0.00	29.869 
05:25	38.8	35.9	38.8	81	33.5	4	10	90	0.00	29.869 
05:30	38.6	38.6	38.6	80	33.0	3	8	90	0.00	29.869 
05:35	38.6	38.6	38.6	79	32.7	3	13	90	0.00	29.869 
05:40	38.5	38.5	38.5	80	32.9	3	9	112	0.00	29.869 
05:45	38.5	35.6	38.5	80	32.9	4	10	112	0.00	29.871 
05:50	38.5	38.5	38.5	80	32.9	2	4	112	0.00	29.871 
05:55	38.5	38.5	38.5	81	33.2	3	6	112	0.00	29.871 
06:00	38.5	35.6	38.5	80	32.9	4	10	90	0.00	29.875 
06:05	38.6	38.6	38.6	80	33.0	3	6	112	0.00	29.875 
06:10	38.6	38.6	38.6	80	33.0	2	7	112	0.00	29.875 
06:15	38.6	38.6	38.6	80	33.0	3	9	112	0.00	29.877 
06:20	38.6	38.6	38.6	80	33.0	3	8	112	0.00	29.877 
06:25	38.5	38.5	38.5	80	32.9	3	9	112	0.00	29.877 
06:30	38.5	35.6	38.5	80	32.9	4	7	112	0.00	29.869 
06:35	38.5	38.5	38.5	80	32.9	3	7	112	0.00	29.869 
06:40	38.5	38.5	38.5	81	33.2	2	5	90	0.00	29.869 
06:45	38.3	35.4	38.3	80	32.7	4	9	90	0.00	29.871 
06:50	38.5	38.5	38.5	81	33.2	3	5	112	0.00	29.871 
06:55	38.3	35.4	38.3	81	33.0	4	10	112	0.00	29.871 
07:00	38.3	38.3	38.3	82	33.3	3	6	112	0.00	29.874 
07:05	38.2	35.2	38.2	82	33.2	4	9	112	0.00	29.874 
07:10	38.2	38.2	38.2	83	33.5	3	6	90	0.00	29.874 
07:15	38.0	38.0	38.0	83	33.3	3	7	112	0.00	29.872 
07:20	38.0	35.0	38.0	82	33.0	4	10	112	0.00	29.872 
07:25	38.0	38.0	38.0	81	32.7	3	11	112	0.00	29.872 
07:30	38.0	35.0	38.0	81	32.7	4	9	90	0.00	29.865 
07:35	38.2	35.2	38.2	81	32.9	4	11	112	0.00	29.865 
07:40	38.2	38.2	38.2	82	33.2	2	6	112	0.00	29.865 
07:45	38.2	38.2	38.2	81	32.9	2	6	112	0.00	29.863 
07:50	38.2	38.2	38.2	81	32.9	3	12	90	0.00	29.863 
07:55	38.2	35.2	38.2	82	33.2	4	10	112	0.00	29.863 
08:00	38.2	38.2	38.2	83	33.5	3	9	90	0.00	29.859 
08:05	38.0	35.0	38.0	83	33.3	4	12	112	0.00	29.859 
08:10	38.0	38.0	38.0	84	33.6	2	5	112	0.01	29.859 
08:15	38.0	38.0	38.0	85	33.9	3	11	90	0.00	29.859 
08:20	37.9	37.9	37.9	85	33.8	2	9	90	0.00	29.859 
08:25	37.8	34.8	37.8	86	34.0	4	10	112	0.01	29.859 
08:30	37.8	34.8	37.8	87	34.3	4	11	112	0.01	29.843 
08:35	37.5	37.5	37.5	88	34.3	3	10	112	0.01	29.843 
08:40	37.3	34.2	37.3	89	34.4	4	11	90	0.00	29.843 
08:45	37.2	34.1	37.2	89	34.3	4	8	112	0.00	29.855 
08:50	37.2	37.2	37.2	89	34.3	1	6	45	0.00	29.855 
08:55	37.2	37.2	37.2	89	34.3	3	10	90	0.00	29.855 
09:00	37.0	37.0	37.0	89	34.1	3	7	90	0.00	29.877 
09:05	37.0	37.0	37.0	89	34.1	1	4	22	0.00	29.877 
09:10	37.0	37.0	37.0	89	34.1	1	3	22	0.00	29.877 
09:15	36.9	36.9	36.9	89	34.0	2	5	22	0.00	29.877 
09:20	36.8	36.8	36.8	89	33.9	1	5	112	0.01	29.877 
09:25	36.8	33.6	36.8	90	34.1	4	8	112	0.01	29.877 
09:30	36.6	33.4	36.6	91	34.2	4	11	112	0.01	29.860 
09:35	36.8	36.8	36.8	91	34.4	1	5	45	0.00	29.860 
09:40	36.9	36.9	36.9	91	34.5	2	6	112	0.00	29.860 
09:45	37.2	37.2	37.2	92	35.1	2	6	135	0.00	29.876 
09:50	37.5	37.5	37.5	92	35.4	2	6	22	0.00	29.876 
09:55	37.6	37.6	37.6	92	35.5	2	9	112	0.00	29.876 
10:00	37.6	37.6	37.6	92	35.5	2	6	90	0.00	29.877 
10:05	37.6	37.6	37.6	92	35.5	3	10	112	0.00	29.877 
10:10	37.6	37.6	37.6	92	35.5	1	5	45	0.00	29.877 
10:15	37.8	37.8	37.8	92	35.7	2	7	112	0.00	29.879 
10:20	37.9	37.9	37.9	92	35.8	3	9	112	0.00	29.879 
10:25	38.2	38.2	38.2	92	36.1	2	7	22	0.00	29.879 
10:30	38.3	38.3	38.3	92	36.2	2	9	112	0.00	29.887 
10:35	38.6	38.6	38.6	92	36.5	2	6	90	0.00	29.887 
10:40	38.5	38.5	38.5	91	36.1	3	13	90	0.00	29.887 
10:45	38.3	34.5	38.3	90	35.6	5	12	112	0.00	29.882 
10:50	38.3	38.3	38.3	90	35.6	3	9	90	0.00	29.882 
10:55	38.3	38.3	38.3	90	35.6	3	11	135	0.00	29.882 
11:00	38.5	38.5	38.5	90	35.8	3	10	112	0.00	29.889 
11:05	38.6	38.6	38.6	89	35.6	3	6	112	0.00	29.889 
11:10	38.3	38.3	38.3	88	35.1	3	9	22	0.00	29.889 
11:15	38.2	35.2	38.2	88	35.0	4	12	112	0.00	29.892 
11:20	38.2	38.2	38.2	88	35.0	3	12	112	0.00	29.892 
11:25	38.3	38.3	38.3	89	35.3	3	10	135	0.00	29.892 
11:30	38.5	38.5	38.5	88	35.3	3	11	112	0.00	29.888 
11:35	38.6	38.6	38.6	88	35.4	2	7	112	0.00	29.888 
11:40	38.8	38.8	38.8	88	35.6	3	11	112	0.00	29.888 
11:45	38.8	35.9	38.8	87	35.3	4	16	112	0.00	29.889 
11:50	38.9	38.9	38.9	88	35.7	2	10	112	0.00	29.889 
11:55	39.1	39.1	39.1	87	35.6	2	9	90	0.00	29.889 
12:00	39.3	36.5	39.3	87	35.8	4	10	90	0.00	29.893 
12:05	39.2	34.8	39.2	86	35.4	6	14	112	0.00	29.893 
12:10	39.3	39.3	39.3	86	35.5	3	12	68	0.00	29.893 
12:15	39.3	34.9	39.3	86	35.5	6	13	112	0.00	29.895 
12:20	39.5	39.5	39.5	86	35.7	3	11	112	0.00	29.895 
12:25	39.5	39.5	39.5	86	35.7	3	9	112	0.00	29.895 
12:30	39.5	35.9	39.5	85	35.4	5	16	112	0.00	29.904 
12:35	39.8	37.1	39.8	86	36.0	4	11	112	0.00	29.904 
12:40	40.2	37.5	40.2	85	36.1	4	13	90	0.00	29.904 
12:45	40.5	40.5	40.5	85	36.4	3	9	90	0.00	29.904 
12:50	40.5	37.9	40.5	84	36.1	4	9	90	0.00	29.904 
12:55	40.3	37.7	40.3	84	35.9	4	10	22	0.00	29.904 
13:00	40.3	40.3	40.3	84	35.9	3	11	112	0.00	29.906 
13:05	40.3	40.3	40.3	84	35.9	2	10	45	0.00	29.906 
13:10	40.3	40.3	40.3	84	35.9	3	10	22	0.00	29.906 
13:15	40.3	37.7	40.3	84	35.9	4	10	90	0.00	29.910 
13:20	40.5	37.9	40.5	84	36.1	4	12	112	0.00	29.910 
13:25	40.6	40.6	40.6	85	36.4	3	10	90	0.00	29.910 
13:30	40.9	40.9	40.9	84	36.4	2	6	112	0.00	29.909 
13:35	40.9	40.9	40.9	84	36.4	2	6	90	0.00	29.909 
13:40	41.2	41.2	41.2	83	36.4	3	11	90	0.00	29.909 
13:45	41.6	41.6	41.6	83	36.8	2	7	112	0.00	29.916 
13:50	41.6	41.6	41.6	82	36.5	2	6	22	0.00	29.916 
13:55	41.8	41.8	41.8	82	36.7	3	7	90	0.00	29.916 
14:00	41.8	41.8	41.8	82	36.7	3	10	112	0.00	29.920 
14:05	41.9	41.9	41.9	82	36.8	3	7	90	0.00	29.920 
14:10	42.2	42.2	42.2	82	37.1	2	6	112	0.00	29.920 
14:15	42.3	42.3	42.3	82	37.2	2	6	112	0.00	29.917 
14:20	42.6	42.6	42.6	81	37.2	3	10	90	0.00	29.917 
14:25	42.6	42.6	42.6	81	37.2	3	10	112	0.00	29.917 
14:30	42.9	40.7	42.9	80	37.2	4	11	90	0.00	29.918 
14:35	43.1	43.1	43.1	80	37.4	3	11	90	0.00	29.918 
14:40	43.2	43.2	43.2	81	37.8	3	12	90	0.00	29.918 
14:45	43.5	43.5	43.5	80	37.7	3	7	112	0.00	29.920 
14:50	43.8	43.8	43.8	80	38.0	3	6	90	0.00	29.920 
14:55	44.3	44.3	44.3	79	38.2	3	6	112	0.00	29.920 
15:00	44.8	44.8	44.8	79	38.7	3	7	90	0.00	29.915 
15:05	44.9	44.9	44.9	77	38.1	3	9	112	0.00	29.915 
15:10	44.9	43.0	44.9	78	38.5	4	10	112	0.00	29.915 
15:15	44.9	44.9	44.9	77	38.1	3	10	90	0.00	29.917 
15:20	44.8	44.8	44.8	77	38.0	3	9	112	0.00	29.917 
15:25	44.8	44.8	44.8	78	38.4	2	5	90	0.00	29.917 
15:30	44.8	42.9	44.8	77	38.0	4	10	112	0.00	29.915 
15:35	44.9	43.0	44.9	77	38.1	4	9	90	0.00	29.915 
15:40	44.9	43.0	44.9	76	37.8	4	10	112	0.00	29.915 
15:45	45.1	45.1	45.1	77	38.3	2	6	68	0.00	29.922 
15:50	45.1	45.1	45.1	77	38.3	2	7	90	0.00	29.922 
15:55	45.2	45.2	45.2	77	38.4	2	7	90	0.00	29.922 
16:00	45.4	45.4	45.4	76	38.3	2	6	112	0.00	29.917 
16:05	45.5	45.5	45.5	76	38.4	3	9	90	0.00	29.917 
16:10	45.5	45.5	45.5	76	38.4	2	8	112	0.00	29.917 
16:15	45.8	45.8	45.8	76	38.7	2	6	90	0.00	29.925 
16:20	45.8	45.8	45.8	75	38.3	3	9	90	0.00	29.925 
16:25	45.7	45.7	45.7	75	38.2	2	6	112	0.00	29.925 
16:30	45.7	45.7	45.7	75	38.2	3	8	112	0.00	29.921 
16:35	45.7	45.7	45.7	76	38.6	3	9	112	0.00	29.921 
16:40	45.8	45.8	45.8	76	38.7	2	6	112	0.00	29.921 
16:45	45.8	45.8	45.8	76	38.7	2	7	90	0.00	29.923 
16:50	45.8	45.8	45.8	76	38.7	2	7	112	0.00	29.923 
16:55	45.8	44.0	45.8	76	38.7	4	11	112	0.00	29.923 
17:00	45.7	45.7	45.7	76	38.6	3	10	90	0.00	29.917 
17:05	45.4	43.6	45.4	76	38.3	4	9	90	0.00	29.917 
17:10	45.2	45.2	45.2	76	38.1	2	9	90	0.00	29.917 
17:15	45.1	45.1	45.1	77	38.3	3	9	112	0.00	29.915 
17:20	44.9	44.9	44.9	78	38.5	1	5	0	0.00	29.915 
17:25	44.8	44.8	44.8	77	38.0	3	7	112	0.00	29.915 
17:30	44.9	44.9	44.9	78	38.5	2	5	112	0.00	29.920 
17:35	44.8	44.8	44.8	77	38.0	3	10	90	0.00	29.920 
17:40	44.6	44.6	44.6	78	38.2	2	7	22	0.00	29.920 
17:45	44.5	44.5	44.5	78	38.1	3	10	112	0.00	29.920 
17:50	44.3	44.3	44.3	78	37.9	3	6	112	0.00	29.920 
17:55	44.2	44.2	44.2	79	38.1	3	9	112	0.00	29.920 
18:00	44.2	44.2	44.2	78	37.8	2	5	90	0.00	29.915 
18:05	44.1	44.1	44.1	79	38.0	3	6	112	0.00	29.915 
18:10	43.9	43.9	43.9	79	37.8	3	7	112	0.00	29.915 
18:15	43.6	43.6	43.6	79	37.5	3	10	90	0.00	29.927 
18:20	43.3	41.1	43.3	79	37.2	4	13	112	0.00	29.927 
18:25	43.1	43.1	43.1	80	37.4	3	12	90	0.00	29.927 
18:30	42.8	40.6	42.8	80	37.1	4	8	90	0.00	29.931 
18:35	42.8	42.8	42.8	80	37.1	1	4	112	0.00	29.931 
18:40	42.8	42.8	42.8	81	37.4	3	7	90	0.00	29.931 
18:45	42.8	42.8	42.8	81	37.4	3	7	90	0.00	29.941 
18:50	42.8	42.8	42.8	81	37.4	2	6	90	0.00	29.941 
18:55	42.6	42.6	42.6	81	37.2	3	7	90	0.00	29.941 
19:00	42.6	42.6	42.6	81	37.2	2	7	90	0.00	29.946 
19:05	42.5	42.5	42.5	81	37.1	2	7	90	0.00	29.946 
19:10	42.3	42.3	42.3	81	36.9	3	9	112	0.00	29.946 
19:15	42.2	42.2	42.2	81	36.8	2	6	112	0.00	29.946 
19:20	42.2	42.2	42.2	81	36.8	2	5	90	0.00	29.946 
19:25	42.2	42.2	42.2	81	36.8	1	4	112	0.00	29.946 
19:30	42.1	42.1	42.1	81	36.7	3	12	112	0.00	29.959 
19:35	41.9	41.9	41.9	81	36.5	3	7	112	0.00	29.959 
19:40	41.9	41.9	41.9	81	36.5	2	6	112	0.00	29.959 
19:45	41.8	41.8	41.8	81	36.4	1	4	90	0.00	29.962 
19:50	41.8	41.8	41.8	81	36.4	1	4	112	0.00	29.962 
19:55	41.8	41.8	41.8	81	36.4	1	5	90	0.00	29.962 
20:00	41.8	41.8	41.8	81	36.4	1	3	90	0.00	29.972 
20:05	41.6	41.6	41.6	81	36.2	2	5	68	0.00	29.972 
20:10	41.6	41.6	41.6	81	36.2	2	5	112	0.00	29.972 
20:15	41.6	41.6	41.6	81	36.2	2	6	90	0.00	29.964 
20:20	41.6	41.6	41.6	81	36.2	1	4	0	0.00	29.964 
20:25	41.5	41.5	41.5	81	36.1	1	4	90	0.00	29.964 
20:30	41.5	41.5	41.5	81	36.1	1	5	22	0.00	29.978 
20:35	41.3	41.3	41.3	81	35.9	1	4	22	0.00	29.978 
20:40	41.3	41.3	41.3	82	36.2	1	4	112	0.00	29.978 
20:45	41.2	41.2	41.2	82	36.1	1	4	112	0.00	29.978 
20:50	41.2	41.2	41.2	82	36.1	1	2	112	0.00	29.978 
20:55	41.1	41.1	41.1	82	36.0	1	5	112	0.00	29.978 
21:00	40.9	40.9	40.9	82	35.8	1	3	45	0.00	29.978 
21:05	40.8	40.8	40.8	82	35.7	1	2	45	0.00	29.978 
21:10	40.6	40.6	40.6	82	35.5	1	4	68	0.00	29.978 
21:15	40.6	40.6	40.6	82	35.5	2	6	90	0.00	29.989 
21:20	40.6	40.6	40.6	82	35.5	1	6	112	0.00	29.989 
21:25	40.6	40.6	40.6	82	35.5	1	4	22	0.00	29.989 
21:30	40.5	40.5	40.5	82	35.4	2	5	90	0.00	30.000 
21:35	40.5	40.5	40.5	82	35.4	3	7	90	0.00	30.000 
21:40	40.3	40.3	40.3	82	35.2	3	8	90	0.00	30.000 
21:45	40.3	36.8	40.3	82	35.2	5	11	90	0.00	29.984 
21:50	40.2	40.2	40.2	82	35.2	3	13	90	0.00	29.984 
21:55	40.2	40.2	40.2	83	35.5	1	7	112	0.00	29.984 
22:00	40.2	40.2	40.2	83	35.5	1	9	68	0.00	29.999 
22:05	40.1	40.1	40.1	83	35.4	2	9	112	0.00	29.999 
22:10	40.1	40.1	40.1	83	35.4	2	7	90	0.00	29.999 
22:15	40.1	40.1	40.1	83	35.4	2	5	112	0.00	29.996 
22:20	40.1	40.1	40.1	83	35.4	2	6	112	0.00	29.996 
22:25	40.1	40.1	40.1	83	35.4	2	6	90	0.00	29.996 
22:30	39.9	39.9	39.9	83	35.2	1	5	90	0.00	30.023 
22:35	39.9	39.9	39.9	83	35.2	1	5	112	0.00	30.023 
22:40	39.9	39.9	39.9	83	35.2	1	4	112	0.00	30.023 
22:45	39.9	39.9	39.9	83	35.2	1	4	112	0.00	30.027 
22:50	39.9	39.9	39.9	83	35.2	1	3	90	0.00	30.027 
22:55	39.9	39.9	39.9	83	35.2	2	6	90	0.00	30.027 
23:00	39.9	39.9	39.9	83	35.2	2	5	90	0.00	30.022 
23:05	39.9	39.9	39.9	83	35.2	3	6	112	0.00	30.022 
23:10	39.8	39.8	39.8	82	34.8	3	6	112	0.00	30.022 
23:15	39.6	39.6	39.6	81	34.3	3	9	112	0.00	30.010 
23:20	39.6	39.6	39.6	81	34.3	3	10	90	0.00	30.010 
23:25	39.6	39.6	39.6	81	34.3	2	6	90	0.00	30.010 
23:30	39.6	39.6	39.6	81	34.3	3	9	90	0.00	30.003 
23:35	39.5	36.7	39.5	81	34.2	4	9	112	0.00	30.003 
23:40	39.5	39.5	39.5	81	34.2	3	7	112	0.00	30.003 
23:45	39.3	39.3	39.3	81	34.0	3	7	90	0.00	29.993 
23:50	39.3	36.5	39.3	82	34.3	4	10	90	0.00	29.993 
23:55	39.2	36.4	39.2	82	34.2	4	9	112	0.00	29.993 

CoCoRaHS
IN-AL-39
A2 Web Hosting
Creative Commons License
GoDaddy
search engine by freefind advanced

loaded 2018-11-17 15:27:33 • last modified 2010-11-18 10:43:29
Privacy PolicyDisclaimer
• wx.awcolley.com is powered by PmWiki v.2002016 •
• all content (unless otherwise noted) © 2018 A W Colley